Airfield :
LOGIN :

Register | Disclaimer

   EN    FR    IT 

 










Legend :    VFR   Marginal VFR   IFR   Intensive IFR   Very Intensive IFR
Visi :
Ceiling :
>= 8 km
>= 3000ft
5 to 8 km
1000 to 3000 ft
1500m to 5 km
500 to 1000 ft
800 to 1500m
200 to 500 ft
< 800m
< 200 ft
Symbols :   Thunderstorms  Fog  Heavy snow  Heavy precipitations  Wind > 20 kt
SIGMETs :     Misc.  Thunderstorms  Icing  Turbulence  Mountain Waves  Volcanic Ashes







- Airport Elevation : 1106 ft
- Download approach charts


LFSO - Nancy / Ochey

CURRENT METAR :
  • 200200Z AUTO 23003KT 6000 OVC006 09/09 Q1022

EXPIRED METARs :
  • 200130Z AUTO 23004KT 5000 BR FEW008 07/07 Q1022
  • 200100Z AUTO 22004KT 8000 NSC 08/07 Q1022
  • 200030Z AUTO 21003KT 8000 NSC 08/08 Q1022
  • 200000Z AUTO 20003KT 9000 NSC 08/08 Q1022
  • 192330Z AUTO 22003KT CAVOK 08/08 Q1022

TAF TAF LFSO
Valid from the 19 at 15:00 until the 20 at 15:00 UTC


191400Z 1915/2015 30012KT 9999 SCT027
TEMPO 1915/1919 29015G25KT 4000 SHRA SCT010 BKN025TCU
BECMG 1921/1924 3000 BR BKN004
PROB40
TEMPO 2002/2005 0800 FG VV///
BECMG 2008/2010 BKN015
No reported NOTAMs for that airfield.



MET'MAP, your aeronautical weather chart ! - Copyright ORBIFLY December 2007 - Disclaimer

ORBIFLY MET'MAP TEAM :

Programming & Development : Alexandra Zaïnal
Concept & Development : Baudouin d'Aumeries
Co-Development & Prog : Marc-Olivier Méhu
Technical & hardware support : Manuel Goepfert

Contact : metmap@orbifly.com




SOURCES & CREDITS :

   NOAA